Time;durP1;ratioP1;P1;durP2;ratioP2;P2;SDS_P1;SDS_P2;PMS_P1;PMS_P2;Temp;Humidity;BMP_temperature;BMP_pressure;BME280_temperature;BME280_humidity;BME280_pressure;Samples;Min_cycle;Max_cycle;Signal;HPM_P1;HPM_P2
2022/04/25 00:01:06;;;;;;;8.20;7.40;;;11.90;94.00;;;;;;5031384;28;20216;-68
2022/04/25 00:03:32;;;;;;;9.70;8.00;;;12.00;94.20;;;;;;4997564;28;20447;-68
2022/04/25 00:05:58;;;;;;;8.67;7.77;;;11.90;93.80;;;;;;5034592;28;20223;-68
2022/04/25 00:08:23;;;;;;;10.20;8.30;;;11.90;93.70;;;;;;5031042;28;20216;-70
2022/04/25 00:10:49;;;;;;;9.27;7.83;;;11.90;93.70;;;;;;5023863;28;20251;-68
2022/04/25 00:13:15;;;;;;;8.67;7.70;;;11.90;93.80;;;;;;5038119;28;20216;-69
2022/04/25 00:15:41;;;;;;;9.70;8.43;;;11.90;93.90;;;;;;5022701;28;20205;-68
2022/04/25 00:18:07;;;;;;;10.27;8.07;;;11.90;94.30;;;;;;5031678;28;20228;-69
2022/04/25 00:20:33;;;;;;;13.27;9.87;;;11.90;94.00;;;;;;4996424;28;20463;-68
2022/04/25 00:23:04;;;;;;;11.93;8.60;;;11.90;93.90;;;;;;5033175;28;20451;-68
2022/04/25 00:25:30;;;;;;;9.00;8.03;;;11.90;93.90;;;;;;5020988;28;20231;-68
2022/04/25 00:27:56;;;;;;;8.30;7.40;;;11.90;93.90;;;;;;5027523;28;20467;-69
2022/04/25 00:30:22;;;;;;;12.23;8.53;;;11.90;93.90;;;;;;5047501;28;20497;-68
2022/04/25 00:32:47;;;;;;;11.00;7.73;;;11.90;94.00;;;;;;5013640;28;20588;-74
2022/04/25 00:35:13;;;;;;;10.37;7.80;;;11.90;93.80;;;;;;5038919;28;20235;-69
2022/04/25 00:37:39;;;;;;;11.17;8.20;;;11.90;93.80;;;;;;5032807;28;20215;-69
2022/04/25 00:40:05;;;;;;;9.83;7.87;;;11.80;93.80;;;;;;5045681;28;20700;-70
2022/04/25 00:42:31;;;;;;;9.60;8.60;;;11.80;93.90;;;;;;5031429;28;20213;-69
2022/04/25 00:44:59;;;;;;;11.33;9.07;;;11.80;93.90;;;;;;5032301;28;21118;-68
2022/04/25 00:47:26;;;;;;;9.13;8.07;;;11.80;93.90;;;;;;5044214;28;20807;-69
2022/04/25 00:49:51;;;;;;;10.90;9.30;;;11.80;93.90;;;;;;5012818;28;20465;-68
2022/04/25 00:52:17;;;;;;;12.73;8.50;;;11.80;94.00;;;;;;5017958;28;20606;-70
2022/04/25 00:54:43;;;;;;;12.30;8.23;;;11.80;93.90;;;;;;5033147;28;20302;-69
2022/04/25 00:57:09;;;;;;;9.63;7.60;;;11.80;93.90;;;;;;5049693;28;20228;-69
2022/04/25 00:59:36;;;;;;;11.67;9.00;;;11.80;94.00;;;;;;5033552;28;20467;-69
2022/04/25 01:02:02;;;;;;;9.87;8.20;;;11.70;93.90;;;;;;5030082;28;20558;-70
2022/04/25 01:04:27;;;;;;;9.80;7.83;;;11.70;94.00;;;;;;4996182;28;20667;-70
2022/04/25 01:06:53;;;;;;;11.70;8.37;;;11.70;94.00;;;;;;5016304;28;20573;-69
2022/04/25 01:09:19;;;;;;;9.13;8.10;;;11.70;94.00;;;;;;5035146;28;20703;-67
2022/04/25 01:11:44;;;;;;;9.27;8.10;;;11.70;94.10;;;;;;4996475;28;20279;-68
2022/04/25 01:14:15;;;;;;;10.50;8.10;;;11.70;94.10;;;;;;5023018;28;20279;-70
2022/04/25 01:16:41;;;;;;;11.00;9.10;;;11.70;94.10;;;;;;5030127;28;20594;-68
2022/04/25 01:19:07;;;;;;;10.97;7.90;;;11.60;94.10;;;;;;5023052;28;20454;-68
2022/04/25 01:21:40;;;;;;;11.17;8.43;;;11.60;94.10;;;;;;5034292;28;20216;-68
2022/04/25 01:27:38;;;;;;;9.57;7.57;;;11.60;94.10;;;;;;5010166;28;20844;-70
2022/04/25 01:29:38;;;;;;;13.30;8.90;;;11.50;94.10;;;;;;5019419;28;20455;-69
2022/04/25 01:32:05;;;;;;;9.77;7.60;;;11.50;94.10;;;;;;5026356;28;20477;-67
2022/04/25 01:34:32;;;;;;;9.67;7.80;;;11.50;94.10;;;;;;5050050;28;20711;-71
2022/04/25 01:36:59;;;;;;;9.90;8.00;;;11.50;94.10;;;;;;5031825;28;20867;-68
2022/04/25 01:39:24;;;;;;;12.17;8.63;;;11.50;94.10;;;;;;5029737;28;20524;-68
2022/04/25 01:41:50;;;;;;;8.70;7.80;;;11.50;94.10;;;;;;5012127;28;20459;-68
2022/04/25 01:44:15;;;;;;;9.40;8.30;;;11.50;94.10;;;;;;5003778;28;20252;-68
2022/04/25 01:46:41;;;;;;;10.53;8.87;;;11.40;94.00;;;;;;5007402;28;20285;-68
2022/04/25 01:49:07;;;;;;;11.70;8.73;;;11.40;94.10;;;;;;5031448;28;20250;-70
2022/04/25 01:51:33;;;;;;;11.03;8.83;;;11.30;94.10;;;;;;5046285;28;20216;-68
2022/04/25 01:53:58;;;;;;;10.53;8.37;;;11.30;94.00;;;;;;5011398;28;20252;-68
2022/04/25 01:56:24;;;;;;;14.00;8.77;;;11.30;94.00;;;;;;5030023;28;20232;-69
2022/04/25 01:58:50;;;;;;;13.53;9.80;;;11.30;94.00;;;;;;5011655;28;20290;-69
2022/04/25 02:01:16;;;;;;;10.67;8.10;;;11.30;94.00;;;;;;5019611;28;20618;-71
2022/04/25 02:03:43;;;;;;;12.80;9.17;;;11.20;94.00;;;;;;5051505;28;20263;-68
2022/04/25 02:06:10;;;;;;;12.63;9.43;;;11.20;94.00;;;;;;5049033;28;20231;-68
2022/04/25 02:08:37;;;;;;;11.33;8.70;;;11.20;94.00;;;;;;5034049;28;20451;-69
2022/04/25 02:11:22;;;;;;;10.07;8.97;;;11.10;93.90;;;;;;5032935;28;20469;-68
2022/04/25 02:13:52;;;;;;;11.10;8.70;;;11.10;94.00;;;;;;5042297;28;20458;-68
2022/04/25 02:16:24;;;;;;;11.50;9.80;;;11.10;94.00;;;;;;5035509;28;20446;-72
2022/04/25 02:18:52;;;;;;;11.63;8.80;;;11.10;93.90;;;;;;5025041;28;20462;-71
2022/04/25 02:21:17;;;;;;;14.20;10.20;;;11.10;93.90;;;;;;5041187;28;20451;-68
2022/04/25 02:23:43;;;;;;;11.63;9.40;;;11.00;94.00;;;;;;5035976;28;20804;-70
2022/04/25 02:26:09;;;;;;;11.47;10.27;;;11.00;94.10;;;;;;4998876;28;20447;-69
2022/04/25 02:28:37;;;;;;;11.83;9.13;;;11.00;94.10;;;;;;5015437;28;20225;-69
2022/04/25 02:31:04;;;;;;;13.80;10.00;;;10.90;94.00;;;;;;5047642;28;20219;-72
2022/04/25 02:33:31;;;;;;;13.67;9.90;;;10.90;94.00;;;;;;5027317;28;20462;-68
2022/04/25 02:35:58;;;;;;;14.60;9.77;;;10.80;94.20;;;;;;5032953;28;20538;-69
2022/04/25 02:38:24;;;;;;;13.63;10.80;;;10.70;94.40;;;;;;5006401;28;20458;-68
2022/04/25 02:41:04;;;;;;;10.90;9.80;;;10.70;94.90;;;;;;5044647;28;20959;-68
2022/04/25 02:43:40;;;;;;;14.67;9.90;;;10.70;94.80;;;;;;5015561;28;20728;-69
2022/04/25 02:46:08;;;;;;;14.33;9.53;;;10.70;94.60;;;;;;5023322;28;20965;-68
2022/04/25 02:48:35;;;;;;;11.67;8.80;;;10.70;94.70;;;;;;5034975;28;20481;-69
2022/04/25 02:51:02;;;;;;;9.87;8.87;;;10.70;94.40;;;;;;5045446;28;20467;-68
2022/04/25 02:53:28;;;;;;;12.70;9.40;;;10.70;94.40;;;;;;5050300;28;20536;-73
2022/04/25 02:55:54;;;;;;;12.57;9.43;;;10.70;94.50;;;;;;5052223;28;20542;-68
2022/04/25 02:58:20;;;;;;;12.47;9.10;;;10.70;94.50;;;;;;5029246;28;20239;-70
2022/04/25 03:00:47;;;;;;;12.63;9.87;;;10.70;94.30;;;;;;5031791;28;20482;-68
2022/04/25 03:03:14;;;;;;;11.60;8.10;;;10.70;94.40;;;;;;4994950;28;20455;-71
2022/04/25 03:05:45;;;;;;;10.90;8.63;;;10.70;94.50;;;;;;4999074;28;20463;-71
2022/04/25 03:08:16;;;;;;;12.83;9.60;;;10.70;94.60;;;;;;5034199;28;20461;-70
2022/04/25 03:10:43;;;;;;;13.30;10.07;;;10.70;94.80;;;;;;5022346;28;20470;-71
2022/04/25 03:13:10;;;;;;;11.20;8.40;;;10.70;94.80;;;;;;5015646;28;20474;-70
2022/04/25 03:15:39;;;;;;;12.00;8.97;;;10.70;94.70;;;;;;5020915;28;20557;-71
2022/04/25 03:18:06;;;;;;;11.87;8.53;;;10.70;94.80;;;;;;5030439;28;20456;-71
2022/04/25 03:20:32;;;;;;;12.57;8.60;;;10.70;94.90;;;;;;5014398;28;20474;-71
2022/04/25 03:22:58;;;;;;;11.90;9.70;;;10.70;95.10;;;;;;5016172;28;20474;-72
2022/04/25 03:25:24;;;;;;;14.20;9.70;;;10.70;95.10;;;;;;5031064;28;20587;-71
2022/04/25 03:27:50;;;;;;;15.17;9.50;;;10.60;95.50;;;;;;5030564;28;20596;-70
2022/04/25 03:30:16;;;;;;;15.60;8.77;;;10.60;95.20;;;;;;5038534;28;20278;-70
2022/04/25 03:32:46;;;;;;;13.00;9.53;;;10.70;95.20;;;;;;5032124;28;20217;-70
2022/04/25 03:35:17;;;;;;;12.40;9.70;;;10.70;95.30;;;;;;5034272;28;20525;-70
2022/04/25 03:37:44;;;;;;;13.80;9.40;;;10.70;95.40;;;;;;5031441;28;20455;-71
2022/04/25 03:40:10;;;;;;;12.93;10.07;;;10.70;95.20;;;;;;5032441;28;20964;-70
2022/04/25 03:42:40;;;;;;;15.10;10.30;;;10.70;95.40;;;;;;5020373;28;20450;-70
2022/04/25 03:45:11;;;;;;;12.13;9.87;;;10.70;95.40;;;;;;5017117;28;20447;-71
2022/04/25 03:47:38;;;;;;;12.33;9.70;;;10.70;95.40;;;;;;5031192;28;20467;-71
2022/04/25 03:50:07;;;;;;;13.20;9.50;;;10.70;95.40;;;;;;5031068;28;20538;-73
2022/04/25 03:52:33;;;;;;;13.97;10.60;;;10.60;95.40;;;;;;5031486;28;20464;-70
2022/04/25 03:57:44;;;;;;;11.83;10.13;;;10.60;95.60;;;;;;5010419;28;20556;-71
2022/04/25 04:00:11;;;;;;;11.47;8.97;;;10.60;95.50;;;;;;5008547;28;20438;-71
2022/04/25 04:02:39;;;;;;;13.27;9.10;;;10.60;95.50;;;;;;5035004;28;20459;-70
2022/04/25 04:05:05;;;;;;;12.23;9.63;;;10.60;95.60;;;;;;5033232;28;20455;-71
2022/04/25 04:07:32;;;;;;;11.63;9.80;;;10.60;95.60;;;;;;5033235;28;20214;-70
2022/04/25 04:09:58;;;;;;;12.13;10.03;;;10.60;95.60;;;;;;5050960;28;20916;-71
2022/04/25 04:12:28;;;;;;;14.57;10.27;;;10.50;95.70;;;;;;5036127;28;20459;-71
2022/04/25 04:14:53;;;;;;;12.97;9.60;;;10.50;95.80;;;;;;5030814;28;20894;-70
2022/04/25 04:17:19;;;;;;;11.23;9.10;;;10.50;95.90;;;;;;5033194;28;20486;-71
2022/04/25 04:19:46;;;;;;;12.10;8.57;;;10.40;95.80;;;;;;4997464;28;20235;-72
2022/04/25 04:22:12;;;;;;;12.80;9.50;;;10.40;95.70;;;;;;5016097;28;20212;-70
2022/04/25 04:24:37;;;;;;;13.60;9.70;;;10.40;95.70;;;;;;5010291;28;20460;-70
2022/04/25 04:27:08;;;;;;;12.10;9.20;;;10.40;95.70;;;;;;5010578;28;20213;-70
2022/04/25 04:29:34;;;;;;;14.27;9.77;;;10.40;95.70;;;;;;5016969;28;20228;-71
2022/04/25 04:32:02;;;;;;;11.80;9.13;;;10.40;95.60;;;;;;5037347;28;20459;-71
2022/04/25 04:34:29;;;;;;;12.60;10.27;;;10.40;95.60;;;;;;5017649;28;20462;-71
2022/04/25 04:36:55;;;;;;;10.50;8.30;;;10.30;96.00;;;;;;5004957;28;20455;-72
2022/04/25 04:39:21;;;;;;;14.00;9.30;;;10.30;95.70;;;;;;5040294;28;20597;-70
2022/04/25 04:41:47;;;;;;;10.90;8.60;;;10.30;95.70;;;;;;5014178;28;20451;-70
2022/04/25 04:44:13;;;;;;;10.10;8.53;;;10.30;95.90;;;;;;5030046;28;20455;-71
2022/04/25 04:46:39;;;;;;;10.53;8.47;;;10.20;96.10;;;;;;5023547;28;20221;-71
2022/04/25 04:49:04;;;;;;;12.33;9.27;;;10.20;95.80;;;;;;4992631;28;20471;-71
2022/04/25 04:51:30;;;;;;;11.70;9.70;;;10.20;96.00;;;;;;5031459;28;20235;-69
2022/04/25 04:53:59;;;;;;;11.30;9.10;;;10.30;96.10;;;;;;5016462;28;20224;-72
2022/04/25 04:56:32;;;;;;;14.17;10.60;;;10.30;96.00;;;;;;5011415;28;20229;-72
2022/04/25 04:59:01;;;;;;;13.57;10.83;;;10.20;95.90;;;;;;5027537;28;21003;-71
2022/04/25 05:01:27;;;;;;;16.43;10.30;;;10.20;96.10;;;;;;5031344;28;20466;-70
2022/04/25 05:03:58;;;;;;;11.90;9.83;;;10.20;96.20;;;;;;5012080;28;20455;-70
2022/04/25 05:06:28;;;;;;;14.10;9.00;;;10.20;96.40;;;;;;5012693;28;20232;-69
2022/04/25 05:08:56;;;;;;;15.63;11.00;;;10.10;96.50;;;;;;5029396;28;20530;-71
2022/04/25 05:11:22;;;;;;;14.50;10.80;;;10.10;96.40;;;;;;5030083;28;20465;-70
2022/04/25 05:13:49;;;;;;;14.90;10.73;;;10.20;96.30;;;;;;5033158;28;20452;-71
2022/04/25 05:16:15;;;;;;;12.87;10.37;;;10.20;96.30;;;;;;5012665;28;20220;-70
2022/04/25 05:18:41;;;;;;;14.50;10.10;;;10.20;96.60;;;;;;5012162;28;20497;-71
2022/04/25 05:21:07;;;;;;;11.93;9.70;;;10.20;96.40;;;;;;5034202;28;20451;-70
2022/04/25 05:23:33;;;;;;;14.30;9.77;;;10.20;96.40;;;;;;5012383;28;20279;-71
2022/04/25 05:25:59;;;;;;;15.50;10.70;;;10.20;96.60;;;;;;5012200;28;20872;-72
2022/04/25 05:28:28;;;;;;;18.13;10.57;;;10.20;96.40;;;;;;5016401;28;20240;-71
2022/04/25 05:30:54;;;;;;;16.27;10.70;;;10.10;96.60;;;;;;5013665;28;20494;-71
2022/04/25 05:33:19;;;;;;;15.93;10.20;;;10.10;96.50;;;;;;5046823;28;20978;-74
2022/04/25 05:35:45;;;;;;;13.77;9.37;;;10.10;96.50;;;;;;5040045;28;20216;-69
2022/04/25 05:38:12;;;;;;;12.53;9.87;;;10.10;96.40;;;;;;5019947;28;20217;-71
2022/04/25 05:40:42;;;;;;;23.53;10.97;;;10.10;96.70;;;;;;5036137;28;20917;-72
2022/04/25 05:43:08;;;;;;;13.70;9.97;;;10.10;96.60;;;;;;5017004;28;20462;-70
2022/04/25 05:45:34;;;;;;;13.17;10.00;;;10.10;96.70;;;;;;5046404;28;21015;-73
2022/04/25 05:48:01;;;;;;;14.73;11.63;;;10.10;96.60;;;;;;5022141;28;20467;-72
2022/04/25 05:53:13;;;;;;;16.37;10.67;;;10.20;96.70;;;;;;5017532;28;20502;-71
2022/04/25 05:55:39;;;;;;;15.40;11.00;;;10.20;97.10;;;;;;5037839;28;20970;-71
2022/04/25 05:58:08;;;;;;;16.17;10.90;;;10.20;96.80;;;;;;5037889;28;21097;-73
2022/04/25 06:00:34;;;;;;;15.13;11.30;;;10.20;96.90;;;;;;5039307;28;21247;-73
2022/04/25 06:03:01;;;;;;;14.73;10.20;;;10.20;96.80;;;;;;5019926;28;20461;-70
2022/04/25 06:05:27;;;;;;;16.50;11.40;;;10.20;97.10;;;;;;5022043;28;20577;-71
2022/04/25 06:07:53;;;;;;;16.40;11.43;;;10.20;97.20;;;;;;5014595;28;20562;-72
2022/04/25 06:10:22;;;;;;;16.37;10.67;;;10.30;97.40;;;;;;5015180;28;20251;-74
2022/04/25 06:12:53;;;;;;;12.77;9.87;;;10.30;97.10;;;;;;4996357;28;20462;-74
2022/04/25 06:15:21;;;;;;;11.27;8.93;;;10.30;97.20;;;;;;5019695;28;20450;-75
2022/04/25 06:17:47;;;;;;;11.97;9.30;;;10.30;97.80;;;;;;5014139;28;20458;-73
2022/04/25 06:20:13;;;;;;;14.60;10.27;;;10.30;97.90;;;;;;5017966;28;20451;-72
2022/04/25 06:22:39;;;;;;;13.47;10.77;;;10.30;97.60;;;;;;5039949;28;20213;-71
2022/04/25 06:25:06;;;;;;;14.47;9.87;;;10.40;97.60;;;;;;5001269;28;20224;-70
2022/04/25 06:27:32;;;;;;;12.93;9.50;;;10.40;97.80;;;;;;5034844;28;20451;-74
2022/04/25 06:29:58;;;;;;;12.57;10.10;;;10.40;97.80;;;;;;5038121;28;20455;-72
2022/04/25 06:32:25;;;;;;;12.80;9.80;;;10.50;98.00;;;;;;5001575;28;20471;-72
2022/04/25 06:34:51;;;;;;;13.73;10.17;;;10.50;97.90;;;;;;5013533;28;20549;-72
2022/04/25 06:37:17;;;;;;;10.53;8.43;;;10.50;97.90;;;;;;5020125;28;21047;-72
2022/04/25 06:39:43;;;;;;;11.87;9.27;;;10.60;98.20;;;;;;5033536;28;20455;-71
2022/04/25 06:42:12;;;;;;;11.37;8.50;;;10.60;98.40;;;;;;5033394;28;20227;-70
2022/04/25 06:44:38;;;;;;;15.97;10.17;;;10.60;98.10;;;;;;5018794;28;20538;-70
2022/04/25 06:47:04;;;;;;;15.13;10.83;;;10.70;98.40;;;;;;5025181;28;20451;-67
2022/04/25 06:49:30;;;;;;;11.30;9.17;;;10.70;98.20;;;;;;5044985;28;20216;-70
2022/04/25 06:51:59;;;;;;;12.33;9.57;;;10.70;98.40;;;;;;5019479;28;20807;-71
2022/04/25 06:54:30;;;;;;;14.80;9.87;;;10.80;98.60;;;;;;5024021;28;20225;-71
2022/04/25 06:56:57;;;;;;;13.07;10.07;;;10.80;98.70;;;;;;5039102;28;20476;-71
2022/04/25 06:59:24;;;;;;;13.67;10.30;;;10.80;98.80;;;;;;5021980;28;20471;-72
2022/04/25 07:01:51;;;;;;;13.00;9.70;;;10.90;98.90;;;;;;5020493;28;20466;-74
2022/04/25 07:04:17;;;;;;;18.63;10.70;;;10.90;99.10;;;;;;5003030;28;20459;-71
2022/04/25 07:06:44;;;;;;;15.47;11.50;;;10.90;99.00;;;;;;5019366;28;20492;-70
2022/04/25 07:09:12;;;;;;;13.20;10.40;;;10.90;98.90;;;;;;5038351;28;20923;-70
2022/04/25 07:11:43;;;;;;;15.90;10.57;;;11.00;99.10;;;;;;5042998;28;20554;-68
2022/04/25 07:14:17;;;;;;;15.63;10.43;;;11.00;99.40;;;;;;5039016;28;22062;-69
2022/04/25 07:16:44;;;;;;;14.93;11.13;;;11.10;99.90;;;;;;5043413;28;20467;-68
2022/04/25 07:19:10;;;;;;;13.60;10.27;;;11.10;99.70;;;;;;5037753;28;20459;-70
2022/04/25 07:29:49;;;;;;;14.30;10.70;;;11.30;99.90;;;;;;5041609;28;20583;-70
2022/04/25 07:32:15;;;;;;;15.90;12.10;;;11.40;99.90;;;;;;5020371;28;20979;-69
2022/04/25 07:34:43;;;;;;;13.17;10.10;;;11.40;99.90;;;;;;5001999;28;20695;-68
2022/04/25 07:37:10;;;;;;;13.63;9.93;;;11.40;99.90;;;;;;5047505;28;20224;-71
2022/04/25 07:39:35;;;;;;;17.90;12.30;;;11.40;99.90;;;;;;5023692;28;20460;-71
2022/04/25 07:42:01;;;;;;;12.83;9.40;;;11.50;99.90;;;;;;5036347;28;20830;-69
2022/04/25 07:44:27;;;;;;;17.23;11.03;;;11.50;99.90;;;;;;5034707;28;20220;-71
2022/04/25 07:46:53;;;;;;;15.97;11.60;;;11.50;99.90;;;;;;5023080;28;20227;-72
2022/04/25 07:49:19;;;;;;;14.50;11.83;;;11.50;99.90;;;;;;5022078;28;20454;-70
2022/04/25 07:51:47;;;;;;;12.50;8.87;;;11.60;99.90;;;;;;5038172;28;20235;-72
2022/04/25 07:54:14;;;;;;;20.23;10.97;;;11.70;99.90;;;;;;5023059;28;20240;-69
2022/04/25 07:56:42;;;;;;;14.53;10.87;;;11.70;99.90;;;;;;5041457;28;20459;-69
2022/04/25 07:59:08;;;;;;;14.83;10.60;;;11.80;99.90;;;;;;5037976;28;20477;-68
2022/04/25 08:01:34;;;;;;;12.50;10.20;;;11.80;99.90;;;;;;5021794;28;20465;-69
2022/04/25 08:04:00;;;;;;;15.67;10.43;;;11.90;99.90;;;;;;5044015;28;20722;-72
2022/04/25 08:06:26;;;;;;;12.13;9.20;;;11.90;99.90;;;;;;5043617;28;20232;-71
2022/04/25 08:08:53;;;;;;;12.47;10.40;;;12.00;99.90;;;;;;5013865;28;20483;-70
2022/04/25 08:11:20;;;;;;;19.23;11.33;;;12.00;99.90;;;;;;5004838;28;20874;-68
2022/04/25 08:19:16;;;;;;;15.47;11.43;;;12.40;99.90;;;;;;5034331;28;20457;-71
2022/04/25 08:21:45;;;;;;;16.70;11.37;;;12.40;99.90;;;;;;5033805;28;20510;-70
2022/04/25 08:24:13;;;;;;;16.40;11.20;;;12.50;99.90;;;;;;5022613;28;20993;-69
2022/04/25 08:26:39;;;;;;;18.80;10.73;;;12.50;99.90;;;;;;5021960;28;20459;-70
2022/04/25 08:29:05;;;;;;;14.50;11.37;;;12.60;99.90;;;;;;5034310;28;20601;-68
2022/04/25 08:31:32;;;;;;;17.07;10.43;;;12.70;99.90;;;;;;5031352;28;20535;-71
2022/04/25 08:33:58;;;;;;;13.50;9.90;;;12.80;99.90;;;;;;5015815;28;20979;-68
2022/04/25 08:36:24;;;;;;;15.53;10.93;;;12.80;99.90;;;;;;5018167;28;20447;-71
2022/04/25 08:38:51;;;;;;;12.00;9.23;;;12.90;99.90;;;;;;5022724;28;21041;-68
2022/04/25 08:41:39;;;;;;;12.90;10.03;;;12.90;99.90;;;;;;5039107;28;20718;-71
2022/04/25 08:44:05;;;;;;;16.23;11.13;;;12.90;99.90;;;;;;5012770;28;20860;-71
2022/04/25 08:46:34;;;;;;;12.87;10.67;;;13.00;99.90;;;;;;5036253;28;20537;-71
2022/04/25 08:49:03;;;;;;;19.00;11.93;;;13.00;99.90;;;;;;5018994;28;20559;-69
2022/04/25 08:51:33;;;;;;;12.93;11.10;;;13.10;99.90;;;;;;5033714;28;20529;-70
2022/04/25 08:54:01;;;;;;;12.83;10.97;;;13.10;99.90;;;;;;5011459;28;20487;-69
2022/04/25 08:56:27;;;;;;;16.77;11.30;;;13.20;99.90;;;;;;5031563;28;20463;-69
2022/04/25 08:58:56;;;;;;;16.63;10.37;;;13.30;99.90;;;;;;5014314;28;20852;-68
2022/04/25 09:01:22;;;;;;;12.50;9.87;;;13.30;99.90;;;;;;5049779;28;20466;-71
2022/04/25 09:03:47;;;;;;;14.20;10.43;;;13.40;99.90;;;;;;5039087;28;20459;-74
2022/04/25 09:06:13;;;;;;;14.63;10.40;;;13.40;99.90;;;;;;5015968;28;20451;-69
2022/04/25 09:08:39;;;;;;;11.97;10.50;;;13.50;99.90;;;;;;5015224;28;20231;-69
2022/04/25 09:13:49;;;;;;;12.17;9.77;;;13.60;99.90;;;;;;5021167;28;20336;-69
2022/04/25 09:16:16;;;;;;;12.80;9.83;;;13.60;99.90;;;;;;5036678;28;20451;-68
2022/04/25 09:18:43;;;;;;;12.50;9.20;;;13.70;99.90;;;;;;5020785;28;20474;-69
2022/04/25 09:21:13;;;;;;;17.50;10.70;;;13.80;99.90;;;;;;5039804;28;20446;-68
2022/04/25 09:23:38;;;;;;;14.40;9.90;;;13.80;99.90;;;;;;5019240;28;20826;-73
2022/04/25 09:26:14;;;;;;;14.33;10.50;;;13.90;99.90;;;;;;5037541;28;20488;-73
2022/04/25 09:28:47;;;;;;;15.97;10.03;;;14.10;99.90;;;;;;5037961;28;20231;-68
2022/04/25 09:31:14;;;;;;;16.07;10.97;;;14.10;99.90;;;;;;5019757;28;20470;-71
2022/04/25 09:33:40;;;;;;;14.00;9.93;;;14.10;99.90;;;;;;5022588;28;20653;-69
2022/04/25 09:36:06;;;;;;;13.93;9.70;;;14.20;99.90;;;;;;5036921;28;20569;-69
2022/04/25 09:38:37;;;;;;;14.67;10.57;;;14.30;99.90;;;;;;5017415;28;20231;-68
2022/04/25 09:41:06;;;;;;;14.27;10.57;;;14.30;99.80;;;;;;5007907;28;20448;-69
2022/04/25 09:43:34;;;;;;;11.20;9.73;;;14.20;99.80;;;;;;5022551;28;20457;-68
2022/04/25 09:46:01;;;;;;;14.40;10.93;;;14.40;99.90;;;;;;5030560;28;20447;-69
2022/04/25 09:48:28;;;;;;;13.40;11.07;;;14.40;99.30;;;;;;5020523;28;20451;-72
2022/04/25 09:51:06;;;;;;;14.67;10.60;;;14.50;99.90;;;;;;4999711;28;20470;-72
2022/04/25 09:53:42;;;;;;;15.77;9.13;;;14.60;99.90;;;;;;5033688;28;20451;-70
2022/04/25 09:56:15;;;;;;;11.70;9.50;;;14.70;99.70;;;;;;5019750;28;20822;-70
2022/04/25 09:58:43;;;;;;;10.10;8.93;;;14.80;99.90;;;;;;5010482;28;20455;-68
2022/04/25 10:01:13;;;;;;;10.27;8.50;;;14.90;99.80;;;;;;5013414;28;20450;-69
2022/04/25 10:03:39;;;;;;;9.60;8.60;;;15.10;99.50;;;;;;5014744;28;20529;-69
2022/04/25 10:06:05;;;;;;;10.07;8.93;;;15.20;99.40;;;;;;5011887;28;20830;-69
2022/04/25 10:08:34;;;;;;;11.33;8.57;;;15.20;99.10;;;;;;5032955;28;20463;-69
2022/04/25 10:11:02;;;;;;;13.63;8.67;;;15.30;99.00;;;;;;5045091;28;20224;-69
2022/04/25 10:13:30;;;;;;;8.80;7.90;;;15.60;98.30;;;;;;5035286;28;21087;-71
2022/04/25 10:15:56;;;;;;;8.63;7.57;;;15.70;98.10;;;;;;5030772;28;21045;-69
2022/04/25 10:18:25;;;;;;;8.40;7.43;;;15.80;97.60;;;;;;5038888;28;20462;-72
2022/04/25 10:20:50;;;;;;;10.93;7.87;;;15.80;97.50;;;;;;5031722;28;21061;-69
2022/04/25 10:23:17;;;;;;;9.50;7.40;;;15.90;97.40;;;;;;5019087;28;20538;-69
2022/04/25 10:25:57;;;;;;;7.40;6.70;;;15.90;97.80;;;;;;5036432;28;20271;-72
2022/04/25 10:28:37;;;;;;;8.67;7.20;;;15.90;97.30;;;;;;5035949;28;20970;-70
2022/04/25 10:31:08;;;;;;;10.70;9.53;;;16.00;97.40;;;;;;5021144;28;20463;-69
2022/04/25 10:33:54;;;;;;;10.63;9.40;;;16.00;97.30;;;;;;5008300;28;20486;-68
2022/04/25 10:36:38;;;;;;;12.83;10.13;;;16.10;97.10;;;;;;5005335;28;20439;-68
2022/04/25 10:39:19;;;;;;;9.63;8.63;;;16.10;96.80;;;;;;5036950;28;20488;-69
2022/04/25 10:44:42;;;;;;;9.50;7.43;;;16.00;97.00;;;;;;5033542;28;20500;-74
2022/04/25 10:47:11;;;;;;;7.63;6.70;;;16.10;96.90;;;;;;5029893;28;20451;-70
2022/04/25 10:49:44;;;;;;;8.10;7.30;;;16.10;96.80;;;;;;5036522;28;20454;-68
2022/04/25 10:52:31;;;;;;;8.27;7.47;;;16.20;96.70;;;;;;4997374;28;20467;-70
2022/04/25 10:55:09;;;;;;;8.37;7.07;;;16.30;96.70;;;;;;5033200;28;20458;-70
2022/04/25 10:57:35;;;;;;;8.03;7.20;;;16.30;96.60;;;;;;5020640;28;20557;-69
2022/04/25 11:00:11;;;;;;;8.60;6.60;;;16.50;96.50;;;;;;5029447;28;20453;-69
2022/04/25 11:02:37;;;;;;;8.40;6.53;;;16.60;96.90;;;;;;5030803;28;20454;-68
2022/04/25 11:05:11;;;;;;;7.37;6.07;;;16.70;96.60;;;;;;5018161;28;20459;-69
2022/04/25 11:07:41;;;;;;;7.30;6.60;;;16.90;96.30;;;;;;5033026;28;20247;-72
2022/04/25 11:10:29;;;;;;;7.03;5.80;;;17.00;95.80;;;;;;5029094;28;20934;-69
2022/04/25 11:12:58;;;;;;;9.07;7.27;;;17.10;95.90;;;;;;5044711;28;20478;-72
2022/04/25 11:15:40;;;;;;;8.83;7.13;;;17.10;96.00;;;;;;5012710;28;20455;-70
2022/04/25 11:18:37;;;;;;;7.27;6.13;;;17.10;95.50;;;;;;5023266;28;20513;-71
2022/04/25 11:21:04;;;;;;;7.80;7.00;;;17.10;95.50;;;;;;5016668;28;20447;-70
2022/04/25 11:23:32;;;;;;;8.17;6.20;;;17.10;95.30;;;;;;5035658;28;20460;-70
2022/04/25 11:26:01;;;;;;;6.57;5.93;;;17.20;95.70;;;;;;5036982;28;20455;-70
2022/04/25 11:28:28;;;;;;;9.37;7.10;;;17.10;95.30;;;;;;5036680;28;20467;-70
2022/04/25 11:31:12;;;;;;;8.10;7.30;;;17.10;95.10;;;;;;5019321;28;20475;-70
2022/04/25 11:33:48;;;;;;;9.20;6.80;;;17.10;95.20;;;;;;5015329;28;21032;-70
2022/04/25 11:36:14;;;;;;;7.80;6.37;;;17.10;95.00;;;;;;5033352;28;20450;-69
2022/04/25 11:41:30;;;;;;;6.83;6.13;;;17.40;95.20;;;;;;5016801;28;20311;-71
2022/04/25 11:43:57;;;;;;;6.70;6.10;;;17.70;94.50;;;;;;5036859;28;20464;-71
2022/04/25 11:46:27;;;;;;;7.07;6.40;;;17.80;94.40;;;;;;5036665;28;20542;-72
2022/04/25 11:48:54;;;;;;;6.90;5.83;;;17.90;94.30;;;;;;5015129;28;20526;-70
2022/04/25 11:51:23;;;;;;;6.67;5.97;;;17.90;94.40;;;;;;5038987;28;20545;-68
2022/04/25 11:53:51;;;;;;;6.93;6.13;;;17.90;93.90;;;;;;5034830;28;20995;-69
2022/04/25 11:56:17;;;;;;;6.50;5.90;;;17.90;94.30;;;;;;5038399;28;20460;-71
2022/04/25 11:58:43;;;;;;;6.50;5.80;;;17.90;94.10;;;;;;5035057;28;20448;-70
2022/04/25 12:01:09;;;;;;;6.03;5.53;;;17.90;93.80;;;;;;5002619;28;20454;-69
2022/04/25 12:03:36;;;;;;;5.80;5.30;;;17.90;93.40;;;;;;5040936;28;21037;-70
2022/04/25 12:06:10;;;;;;;5.77;5.17;;;17.90;93.00;;;;;;5007183;28;20466;-69
2022/04/25 12:16:50;;;;;;;5.60;4.97;;;17.90;93.10;;;;;;5023811;28;20542;-72
2022/04/25 12:19:17;;;;;;;5.43;4.53;;;17.90;92.60;;;;;;5035644;28;20542;-69
2022/04/25 12:21:47;;;;;;;6.73;6.10;;;18.00;92.60;;;;;;5036732;28;20220;-72
2022/04/25 12:24:17;;;;;;;8.00;6.03;;;18.00;92.10;;;;;;5038728;28;20788;-70
2022/04/25 12:26:43;;;;;;;6.30;5.70;;;18.00;91.90;;;;;;5031233;28;20455;-68
2022/04/25 12:29:11;;;;;;;6.27;5.67;;;18.00;91.80;;;;;;5037570;28;21017;-70
2022/04/25 12:31:48;;;;;;;5.77;5.27;;;18.00;92.10;;;;;;5035451;28;20758;-69
2022/04/25 12:34:19;;;;;;;5.73;5.17;;;18.00;91.90;;;;;;5000692;28;20447;-69
2022/04/25 12:36:56;;;;;;;7.17;6.47;;;18.00;92.10;;;;;;5016686;28;20866;-70
2022/04/25 12:39:24;;;;;;;9.47;8.47;;;18.00;93.00;;;;;;5030480;28;20561;-71
2022/04/25 12:41:57;;;;;;;9.40;8.50;;;18.10;93.00;;;;;;5040019;28;20958;-69
2022/04/25 12:44:24;;;;;;;10.07;8.60;;;18.20;92.60;;;;;;5036079;28;20947;-70
2022/04/25 12:46:53;;;;;;;9.90;8.90;;;18.30;92.30;;;;;;5033687;28;20534;-72
2022/04/25 12:49:31;;;;;;;10.27;9.27;;;18.50;92.10;;;;;;5039068;28;20994;-68
2022/04/25 12:51:59;;;;;;;8.77;7.90;;;18.50;91.70;;;;;;5036003;28;20482;-70
2022/04/25 12:54:32;;;;;;;9.57;8.67;;;18.70;91.60;;;;;;5020471;28;20581;-72
2022/04/25 12:57:15;;;;;;;8.13;7.47;;;18.80;92.00;;;;;;5035896;28;20467;-70
2022/04/25 12:59:42;;;;;;;9.90;8.90;;;18.80;92.10;;;;;;5031723;28;20462;-69
2022/04/25 13:02:14;;;;;;;10.80;8.90;;;18.80;92.30;;;;;;5034512;28;20878;-69
2022/04/25 13:05:07;;;;;;;9.20;8.30;;;18.80;91.80;;;;;;5020332;28;20959;-69
2022/04/25 13:07:45;;;;;;;9.87;8.93;;;18.80;91.70;;;;;;5019366;28;20462;-70
2022/04/25 13:10:19;;;;;;;10.50;9.50;;;18.90;91.50;;;;;;5023016;28;20443;-69
2022/04/25 13:12:47;;;;;;;11.27;9.23;;;18.90;90.90;;;;;;5031621;28;20479;-69
2022/04/25 13:15:18;;;;;;;11.33;10.30;;;18.80;91.00;;;;;;5033284;28;20455;-68
2022/04/25 13:17:44;;;;;;;9.50;8.70;;;18.90;91.30;;;;;;5016936;28;20530;-69
2022/04/25 13:20:15;;;;;;;10.10;9.07;;;18.90;91.70;;;;;;5015800;28;20471;-69